• Join FlightAware (Why Join?)
  • Login
  • US Flag 
03:55AM EDT


 

Airport Tracker/Info


-or-


 

Live Flight TrackerFlight Track Log ✈ N560HM ✈ 15-Mar-2014 ✈ KAGC - KPBI

Flight Track Log - Related Links

Times and Time Zones

All times are in EDT time to prevent confusion due to time zone crossing. See the N560HM flight status page for this flight to view local times or setup timezone preferences in your user account.

Time Position Orientation Groundspeed Altitude Reporting Facility
EDT Latitude Longitude Course Direction KTS MPH feet Rate Location/Type
11:33AM 40.3342 -79.9853 194° South 222 255 3,300  Level Cleveland Center
11:34AM 40.2747 -80.0092 197° South 217 250 5,700 2,340 Climbing Cleveland Center
11:35AM 40.2067 -80.0239 189° South 241 277 8,100 2,580 Climbing Cleveland Center
11:36AM 40.1281 -80.0408 189° South 279 321 11,000 2,760 Climbing Cleveland Center
11:37AM 40.0478 -80.0625 192° South 288 331 13,800 2,580 Climbing Cleveland Center
11:38AM 39.6561 -80.1369 194° South  Level FlightAware Approximate
11:38AM 39.9628 -80.0836 191° South 308 354 16,400  Level Cleveland Center
11:39AM 39.8739 -80.1072 192° South 323 372 18,900 2,280 Climbing Cleveland Center
11:40AM 39.7808 -80.1306 191° South 339 390 21,100 2,100 Climbing Cleveland Center
11:41AM 39.6869 -80.1547 191° South 343 395 23,300 2,160 Climbing Cleveland Center
11:42AM 39.5772 -80.1831 191° South 351 404 25,600 1,860 Climbing Cleveland Center
11:43AM 39.4731 -80.2114 192° South 362 417 27,200 1,500 Climbing Cleveland Center
11:44AM 39.3497 -80.2431 191° South 375 432 29,000 1,140 Climbing Washington Center
11:45AM 39.2419 -80.2703 191° South 389 448 29,900 480 Climbing Washington Center
11:46AM 39.1244 -80.2814 184° South 420 483 30,000 420 Climbing Washington Center
11:47AM 38.9917 -80.2611 173° South 443 510 30,800 480 Climbing Washington Center
11:49AM 38.8739 -80.2328 169° South 443 510 31,000 480 Climbing Washington Center
11:50AM 38.7547 -80.2019 169° South 446 513 31,800 1,200 Climbing Washington Center
11:51AM 38.6236 -80.2114 183° South 406 467 33,600 1,500 Climbing Washington Center
11:52AM 38.5158 -80.2250 186° South 402 463 35,100 1,500 Climbing Washington Center
11:53AM 38.4144 -80.2356 185° South 382 440 36,700 1,560 Climbing Washington Center
11:54AM 38.2967 -80.2481 185° South 365 420 38,300 1,200 Climbing Washington Center
11:55AM 38.2025 -80.2656 188° South 353 406 39,200 660 Climbing Washington Center
11:56AM 38.1047 -80.2803 187° South 360 414 39,700 360 Climbing Washington Center
11:57AM 37.9858 -80.3003 188° South 366 421 40,000 120 Climbing Washington Center
11:58AM 37.8828 -80.3169 187° South 381 438 40,000  Level Washington Center
11:59AM 37.7775 -80.3342 187° South 389 448 40,000  Level Washington Center
12:00PM 37.6481 -80.3561 188° South 399 459 40,000  Level Washington Center
12:01PM 37.5422 -80.3731 187° South 397 457 40,000  Level Washington Center
12:02PM 37.4314 -80.3908 187° South 406 467 40,000  Level Washington Center
12:03PM 37.3031 -80.4128 188° South 404 465 40,000  Level Washington Center
12:04PM 37.1956 -80.4306 188° South 402 463 40,000  Level Washington Center
12:05PM 37.0908 -80.4475 187° South 395 455 40,000  Level Washington Center
12:06PM 36.9625 -80.4672 187° South 395 455 40,000  Level Washington Center
12:07PM 36.8569 -80.4839 187° South 395 455 40,000  Level Washington Center
12:08PM 36.7206 -80.5064 188° South 406 467 40,000  Level Atlanta Center
12:09PM 36.6211 -80.5211 187° South 406 467 40,000  Level Atlanta Center
12:10PM 36.5089 -80.5389 187° South 406 467 40,000  Level Atlanta Center
12:11PM 36.4008 -80.5539 186° South 406 467 40,000  Level Atlanta Center
12:12PM 36.2889 -80.5742 188° South 406 467 40,000  Level Atlanta Center
12:13PM 36.1725 -80.5919 187° South 406 467 40,000  Level Atlanta Center
12:14PM 36.0625 -80.6097 187° South 406 467 40,000  Level Atlanta Center
12:15PM 35.9503 -80.6272 187° South 406 467 40,000  Level Atlanta Center
12:16PM 35.8403 -80.6472 188° South 406 467 40,000  Level Atlanta Center
12:17PM 35.7303 -80.6619 186° South 406 467 40,000  Level Atlanta Center
12:18PM 35.6181 -80.6794 187° South 406 467 40,000  Level Atlanta Center
12:19PM 35.5289 -80.6958 189° South 406 467 40,000  Level Atlanta Center
12:20PM 35.4083 -80.7133 187° South 406 467 40,000  Level Atlanta Center
12:23PM 35.1492 -80.7525 187° South 397 457 40,000  Level Jacksonville Center
12:24PM 35.0369 -80.7731 189° South 402 463 40,000  Level Jacksonville Center
12:25PM 34.9286 -80.7883 187° South 408 470 40,000  Level Jacksonville Center
12:26PM 34.8183 -80.8039 187° South 408 470 40,000  Level Jacksonville Center
12:27PM 34.7061 -80.8267 189° South 408 470 40,000  Level Jacksonville Center
12:28PM 34.6000 -80.8369 185° South 402 463 40,000  Level Jacksonville Center
12:29PM 34.4794 -80.8600 189° South 402 463 40,000  Level Jacksonville Center
12:30PM 34.3731 -80.8725 186° South 402 463 40,000  Level Jacksonville Center
12:31PM 34.2669 -80.8925 189° South 397 457 40,000  Level Jacksonville Center
12:32PM 34.1589 -80.9050 185° South 392 451 40,000  Level Jacksonville Center
12:33PM 34.0528 -80.9250 189° South 392 451 40,000  Level Jacksonville Center
12:34PM 33.9444 -80.9400 187° South 391 450 40,000  Level Jacksonville Center
12:35PM 33.8361 -80.9547 186° South 391 450 40,000  Level Jacksonville Center
12:36PM 33.7278 -80.9697 187° South 391 450 40,000  Level Jacksonville Center
12:37PM 33.6194 -80.9772 183° South 391 450 40,000  Level Jacksonville Center
12:38PM 33.5069 -80.9844 183° South 391 450 40,000  Level Jacksonville Center
12:39PM 33.3983 -80.9917 183° South 391 450 40,000  Level Jacksonville Center
12:40PM 33.2983 -80.9964 182° South 398 458 40,000  Level Jacksonville Center
12:41PM 33.1900 -81.0036 183° South 398 458 40,000  Level Jacksonville Center
12:42PM 33.0814 -81.0108 183° South 398 458 40,000  Level Jacksonville Center
12:43PM 32.9753 -81.0181 183° South 398 458 40,000  Level Jacksonville Center
12:44PM 32.8647 -81.0228 182° South 398 458 40,000  Level Jacksonville Center
12:45PM 32.7561 -81.0300 183° South 398 458 40,000  Level Jacksonville Center
12:46PM 32.6497 -81.0372 183° South 398 458 40,000  Level Jacksonville Center
12:47PM 32.5414 -81.0444 183° South 398 458 40,000  Level Jacksonville Center
12:48PM 32.4328 -81.0489 182° South 393 452 40,000  Level Jacksonville Center
12:49PM 32.3286 -81.0561 183° South 381 438 40,000  Level Jacksonville Center
12:50PM 32.2139 -81.0583 181° South 386 444 40,000  Level Jacksonville Center
12:51PM 32.1075 -81.0678 184° South 397 457 40,000  Level Jacksonville Center
12:52PM 31.9989 -81.0725 182° South 402 463 40,000  Level Jacksonville Center
12:53PM 31.8822 -81.0797 183° South 402 463 40,000  Level Jacksonville Center
12:54PM 31.7758 -81.0867 183° South 383 441 40,000  Level Jacksonville Center
12:55PM 31.6797 -81.0933 183° South 389 448 40,000  Level Jacksonville Center
12:56PM 31.5608 -81.0981 182° South 384 442 40,000  Level Jacksonville Center
12:57PM 31.4650 -81.1047 183° South 384 442 40,000  Level Jacksonville Center
12:58PM 31.3586 -81.1092 182° South 384 442 40,000  Level Jacksonville Center
12:59PM 31.2417 -81.1189 184° South 384 442 40,000  Level Jacksonville Center
01:00PM 31.1353 -81.1256 183° South 384 442 40,000  Level Jacksonville Center
01:01PM 31.0269 -81.1325 183° South 384 442 40,000  Level Jacksonville Center
01:02PM 30.9206 -81.1369 182° South 384 442 40,000  Level Jacksonville Center
01:03PM 30.8119 -81.1436 183° South 384 442 40,000  Level Jacksonville Center
01:04PM 30.7056 -81.1481 182° South 384 442 40,000  Level Jacksonville Center
01:05PM 30.5992 -81.1550 183° South 384 442 40,000  Level Jacksonville Center
01:06PM 30.4883 -81.1497 178° South 389 448 40,000  Level Jacksonville Center
01:07PM 30.3778 -81.1444 178° South 394 453 40,000  Level Jacksonville Center
01:08PM 30.2669 -81.1417 179° South 399 459 40,000 -360 Level Jacksonville Center
01:09PM 30.1519 -81.1172 170° South 409 471 39,300 -900 Descending Jacksonville Center
01:10PM 30.0322 -81.0789 165° South 422 486 38,200 -1,140 Descending Jacksonville Center
01:11PM 29.9128 -81.0428 165° South 436 502 37,100 -1,020 Descending Jacksonville Center
01:12PM 29.7933 -81.0042 164° South 442 509 36,200 -600 Descending Jacksonville Center
01:13PM 29.6758 -80.9706 166° South 442 509 36,000 -120 Descending Jacksonville Center
01:14PM 29.5564 -80.9325 165° South 442 509 36,000  Level Jacksonville Center
01:15PM 29.4431 -80.8989 166° South 431 496 36,000  Level Jacksonville Center
01:16PM 29.3192 -80.8664 167° South 444 511 36,000  Level Miami Center
01:17PM 29.2033 -80.8311 165° South 452 520 36,000  Level Miami Center
01:18PM 29.0894 -80.7986 166° South 435 501 36,000  Level Miami Center
01:19PM 28.9778 -80.7639 165° South 424 488 36,000  Level Miami Center
01:20PM 28.8786 -80.7319 164° South 424 488 36,000 -240 Level Miami Center
01:21PM 28.7542 -80.6967 166° South 413 475 35,600 -1,140 Descending Miami Center
01:22PM 28.6411 -80.6383 156° South 428 493 33,800 -2,040 Descending Miami Center
01:23PM 28.5286 -80.5567 147° Southeast 461 531 31,600 -2,280 Descending Miami Center
01:24PM 28.4117 -80.4678 146° Southeast 473 544 28,900 -2,460 Descending Miami Center
01:25PM 28.2908 -80.3861 149° Southeast 461 531 26,300 -2,340 Descending Miami Center
01:26PM 28.1747 -80.3542 166° South 440 506 24,300 -2,040 Descending Miami Center
01:27PM 28.0625 -80.3250 167° South 424 488 22,300 -1,980 Descending Miami Center
01:28PM 27.9650 -80.3008 168° South 407 468 20,400 -1,980 Descending Miami Center
01:29PM 27.8469 -80.2692 167° South 402 463 18,400 -1,800 Descending Miami Center
01:30PM 27.7431 -80.2447 168° South 390 449 16,800 -1,500 Descending Miami Center
01:31PM 27.6475 -80.2208 168° South 370 426 15,400 -900 Descending Miami Center
01:32PM 27.5561 -80.1994 168° South 352 405 15,000 -840 Descending Miami Center
01:33PM 27.4753 -80.1783 167° South 338 389 13,800 -2,040 Descending Miami Center
01:34PM 27.3819 -80.1522 166° South 326 375 11,000 -1,920 Descending Miami Center
01:35PM 27.3008 -80.1383 171° South 305 351 10,000 -720 Descending Miami Center
01:36PM 27.2239 -80.1197 168° South 290 334 9,600 -960 Descending Miami Center
01:37PM 27.1581 -80.0853 155° Southeast 285 328 8,100 -1,500 Descending Miami Center
01:38PM 27.0856 -80.0506 157° South 285 328 6,600 -1,500 Descending Miami Center
01:39PM 27.0133 -80.0136 155° Southeast 266 306 5,100 -840 Descending Miami Center
01:40PM 26.9511 -79.9933 164° South 255 293 5,000 -60 Descending Miami Center
01:41PM 26.8939 -80.0361 214° Southwest 227 261 5,000 -600 Level Miami Center
01:42PM 26.8469 -80.0767 218° Southwest 240 276 3,900 -1,140 Descending Miami Center
01:44PM 26.7916 -80.2353 265° West  Level FlightAware Approximate
01:51PM 26.6832 -80.0956 110° East  Level Estimated
01:52PM 26.6832 -80.0956 110° East  Level Estimated
01:53PM 26.6832 -80.0956 110° East  Level Estimated
01:54PM 26.6832 -80.0956 110° East  Level Estimated
01:55PM 26.6832 -80.0956 110° East  Level Estimated